Terminal Aerodrome Forecast
Issued by NWS

Home | Current Version | Previous Version | Text Only | Print | Product List | Glossary On
Versions: 1 2 3 4 5 6 7 8 9 10 11 12 13 14 15 16 17 18
696
FTUS43 KDTX 200846 AAA
TAFMBS
TAF AMD
KMBS 200846Z 2009/2106 33006KT P6SM SCT009
     FM201200 01009KT P6SM OVC010
     FM201400 03011KT P6SM OVC015
     FM201600 04008KT P6SM BKN030
     FM202100 06005KT P6SM SCT150=

USA.gov is the U.S. government's official web portal to all federal, state and local government web resources and services.